createdAt,value
2017-09-09T00:01:12.649Z,90.80
2017-09-09T00:03:40.124Z,90.70
2017-09-09T00:06:08.353Z,91.20
2017-09-09T00:08:35.832Z,91.00
2017-09-09T00:11:03.292Z,91.10
2017-09-09T00:13:30.768Z,91.30
2017-09-09T00:15:58.223Z,91.50
2017-09-09T00:18:25.702Z,91.70
2017-09-09T00:20:53.940Z,91.90
2017-09-09T00:23:21.413Z,92.00
2017-09-09T00:25:48.880Z,92.20
2017-09-09T00:28:16.364Z,92.00
2017-09-09T00:30:44.595Z,91.90
2017-09-09T00:33:12.083Z,91.90
2017-09-09T00:35:40.312Z,91.90
2017-09-09T00:38:07.780Z,91.90
2017-09-09T00:40:35.243Z,91.70
2017-09-09T00:43:02.713Z,91.70
2017-09-09T00:45:30.176Z,91.70
2017-09-09T00:47:57.640Z,91.40
2017-09-09T00:50:25.111Z,91.50
2017-09-09T00:52:53.334Z,91.80
2017-09-09T00:55:20.812Z,91.80
2017-09-09T00:57:48.273Z,91.60
2017-09-09T01:00:18.465Z,91.80
2017-09-09T01:02:45.983Z,91.70
2017-09-09T01:05:14.214Z,91.60
2017-09-09T01:07:41.699Z,91.60
2017-09-09T01:10:09.185Z,91.40
2017-09-09T01:12:37.420Z,91.50
2017-09-09T01:15:04.901Z,91.50
2017-09-09T01:17:32.360Z,91.60
2017-09-09T01:20:00.606Z,91.10
2017-09-09T01:22:28.070Z,91.40
2017-09-09T01:24:55.580Z,91.20
2017-09-09T01:27:23.044Z,91.10
2017-09-09T01:29:50.523Z,91.30
2017-09-09T01:32:17.988Z,91.20
2017-09-09T01:34:45.460Z,91.20
2017-09-09T01:37:12.918Z,91.60
2017-09-09T01:39:41.173Z,91.20
2017-09-09T01:42:08.635Z,91.20
2017-09-09T01:44:36.097Z,91.50
2017-09-09T01:47:03.568Z,91.40
2017-09-09T01:49:31.027Z,91.70
2017-09-09T01:51:58.500Z,91.20
2017-09-09T01:54:25.964Z,91.30
2017-09-09T01:56:53.448Z,91.50
2017-09-09T01:59:20.912Z,91.50
2017-09-09T02:01:48.393Z,91.50
2017-09-09T02:04:15.861Z,91.60
2017-09-09T02:06:43.331Z,91.60
2017-09-09T02:09:10.799Z,91.60
2017-09-09T02:11:38.283Z,91.50
2017-09-09T02:14:05.741Z,91.40
2017-09-09T02:16:33.989Z,91.40
2017-09-09T02:19:01.452Z,91.40
2017-09-09T02:21:28.923Z,91.50
2017-09-09T02:23:56.377Z,91.40
2017-09-09T02:26:24.620Z,91.40
2017-09-09T02:28:52.079Z,91.40
2017-09-09T02:31:19.557Z,91.20
2017-09-09T02:33:47.023Z,91.30
2017-09-09T02:36:14.471Z,91.40
2017-09-09T02:38:41.938Z,91.30
2017-09-09T02:41:09.395Z,91.30
2017-09-09T02:43:36.872Z,91.40
2017-09-09T02:46:05.639Z,91.30
2017-09-09T02:48:33.107Z,91.50
2017-09-09T02:51:00.564Z,91.50
2017-09-09T02:53:28.044Z,91.50
2017-09-09T02:55:56.277Z,91.70
2017-09-09T02:58:23.743Z,91.60
2017-09-09T03:00:51.199Z,91.90
2017-09-09T03:03:18.676Z,91.80
2017-09-09T03:05:46.140Z,92.10
2017-09-09T03:08:13.616Z,92.30
2017-09-09T03:10:41.838Z,92.60
2017-09-09T03:13:09.310Z,92.60
2017-09-09T03:15:36.774Z,92.60
2017-09-09T03:18:04.241Z,92.90
2017-09-09T03:20:31.707Z,92.90
2017-09-09T03:22:59.177Z,93.10
2017-09-09T03:25:27.402Z,92.90
2017-09-09T03:27:54.867Z,92.90
2017-09-09T03:30:22.337Z,92.90
2017-09-09T03:32:49.794Z,93.20
2017-09-09T03:35:17.275Z,93.20
2017-09-09T03:37:44.729Z,92.90
2017-09-09T03:40:12.194Z,93.00
2017-09-09T03:42:40.418Z,93.00
2017-09-09T03:45:07.896Z,93.00
2017-09-09T03:47:35.347Z,92.80
2017-09-09T03:50:02.823Z,93.20
2017-09-09T03:52:30.287Z,93.00
2017-09-09T03:54:58.115Z,93.00
2017-09-09T03:57:25.574Z,93.00
2017-09-09T03:59:53.043Z,93.00
2017-09-09T04:02:20.516Z,92.90
2017-09-09T04:04:47.986Z,93.10
2017-09-09T04:07:15.469Z,93.00
2017-09-09T04:09:43.703Z,92.90
2017-09-09T04:12:11.159Z,92.80
2017-09-09T04:14:38.634Z,92.90
2017-09-09T04:17:06.092Z,93.00
2017-09-09T04:19:33.551Z,92.70
2017-09-09T04:22:01.020Z,92.70
2017-09-09T04:24:28.484Z,92.70
2017-09-09T04:26:55.959Z,92.70
2017-09-09T04:29:24.180Z,92.60
2017-09-09T04:31:51.654Z,92.60
2017-09-09T04:34:19.111Z,92.50
2017-09-09T04:36:46.575Z,92.30
2017-09-09T04:39:14.041Z,92.40
2017-09-09T04:41:41.516Z,92.20
2017-09-09T04:44:09.746Z,92.10
2017-09-09T04:46:37.218Z,92.10
2017-09-09T04:49:04.683Z,91.90
2017-09-09T04:51:32.162Z,92.00
2017-09-09T04:54:00.405Z,92.00
2017-09-09T04:56:28.248Z,92.00
2017-09-09T04:58:55.699Z,91.90
2017-09-09T05:01:23.171Z,92.10
2017-09-09T05:03:50.631Z,92.00
2017-09-09T05:06:18.101Z,91.70
2017-09-09T05:08:45.573Z,91.70
2017-09-09T05:11:13.024Z,91.80
2017-09-09T05:13:40.499Z,91.40
2017-09-09T05:16:07.951Z,91.40
2017-09-09T05:18:35.423Z,91.30
2017-09-09T05:21:02.882Z,92.10
2017-09-09T05:23:31.119Z,92.30
2017-09-09T05:25:58.574Z,92.00
2017-09-09T05:28:26.043Z,92.40
2017-09-09T05:30:53.503Z,92.40
2017-09-09T05:33:20.975Z,91.90
2017-09-09T05:35:48.435Z,91.90
2017-09-09T05:38:15.907Z,92.20
2017-09-09T05:40:43.367Z,92.00
2017-09-09T05:43:10.845Z,91.60
2017-09-09T05:45:38.320Z,91.80
2017-09-09T05:48:05.791Z,91.90
2017-09-09T05:50:33.255Z,92.00
2017-09-09T05:53:00.722Z,92.10
2017-09-09T05:55:28.183Z,92.00
2017-09-09T05:57:55.648Z,92.10
2017-09-09T06:00:23.107Z,92.30
2017-09-09T06:02:50.562Z,92.30
2017-09-09T06:05:18.031Z,92.30
2017-09-09T06:07:45.500Z,92.40
2017-09-09T06:10:12.973Z,92.50
2017-09-09T06:12:41.195Z,93.00
2017-09-09T06:15:08.710Z,92.90
2017-09-09T06:17:36.933Z,92.60
2017-09-09T06:20:04.404Z,92.60
2017-09-09T06:22:31.893Z,93.20
2017-09-09T06:24:59.355Z,93.30
2017-09-09T06:27:27.577Z,93.40
2017-09-09T06:29:55.049Z,93.40
2017-09-09T06:32:22.507Z,93.20
2017-09-09T06:34:49.970Z,93.80
2017-09-09T06:37:17.430Z,93.50
2017-09-09T06:39:44.899Z,93.70
2017-09-09T06:42:12.356Z,93.60
2017-09-09T06:44:39.823Z,93.00
2017-09-09T06:47:07.286Z,93.40
2017-09-09T06:49:34.756Z,92.90
2017-09-09T06:52:02.979Z,93.40
2017-09-09T06:54:30.454Z,93.30
2017-09-09T06:56:57.925Z,93.80
2017-09-09T06:59:26.150Z,93.50
2017-09-09T07:01:53.623Z,93.80
2017-09-09T07:04:21.082Z,93.40
2017-09-09T07:06:48.570Z,93.00
2017-09-09T07:09:16.244Z,93.40
2017-09-09T07:11:43.707Z,92.20
2017-09-09T07:14:11.184Z,92.90
2017-09-09T07:16:39.424Z,92.90
2017-09-09T07:19:06.888Z,92.90
2017-09-09T07:21:34.347Z,92.30
2017-09-09T07:24:01.807Z,92.40
2017-09-09T07:26:29.287Z,92.50
2017-09-09T07:28:57.506Z,92.40
2017-09-09T07:31:24.982Z,92.30
2017-09-09T07:33:52.443Z,93.00
2017-09-09T07:36:19.911Z,91.90
2017-09-09T07:38:47.375Z,92.00
2017-09-09T07:41:14.842Z,92.20
2017-09-09T07:43:48.536Z,92.80
2017-09-09T07:46:16.017Z,93.10
2017-09-09T07:48:43.471Z,93.00
2017-09-09T07:51:10.939Z,92.50
2017-09-09T07:53:39.165Z,92.50
2017-09-09T07:56:06.622Z,92.50
2017-09-09T07:58:34.090Z,92.50
2017-09-09T08:01:01.555Z,93.80
2017-09-09T08:03:29.024Z,92.10
2017-09-09T08:05:56.487Z,92.60
2017-09-09T08:08:23.957Z,92.00
2017-09-09T08:10:52.182Z,92.60
2017-09-09T08:13:19.651Z,92.70
2017-09-09T08:15:47.119Z,92.70
2017-09-09T08:18:14.574Z,92.60
2017-09-09T08:20:42.067Z,92.80
2017-09-09T08:23:09.505Z,92.80
2017-09-09T08:25:36.959Z,93.10
2017-09-09T08:28:04.474Z,92.70
2017-09-09T08:30:31.934Z,92.10
2017-09-09T08:32:59.409Z,92.50
2017-09-09T08:35:26.907Z,92.70
2017-09-09T08:37:54.383Z,93.20
2017-09-09T08:40:22.611Z,92.60
2017-09-09T08:42:50.088Z,92.60
2017-09-09T08:45:17.542Z,93.20
2017-09-09T08:47:44.999Z,92.60
2017-09-09T08:50:12.467Z,92.00
2017-09-09T08:52:39.923Z,92.30
2017-09-09T08:55:07.400Z,92.00
2017-09-09T08:57:35.628Z,92.50
2017-09-09T09:00:03.090Z,92.20
2017-09-09T09:02:30.552Z,92.40
2017-09-09T09:04:58.022Z,92.30
2017-09-09T09:07:25.487Z,92.30
2017-09-09T09:09:52.960Z,91.40
2017-09-09T09:12:20.681Z,91.80
2017-09-09T09:14:48.142Z,91.90
2017-09-09T09:17:15.594Z,91.70
2017-09-09T09:19:43.068Z,91.70
2017-09-09T09:22:11.291Z,92.60
2017-09-09T09:24:39.535Z,92.20
2017-09-09T09:27:06.995Z,92.20
2017-09-09T09:29:34.461Z,92.10
2017-09-09T09:32:01.935Z,92.30
2017-09-09T09:34:29.394Z,92.00
2017-09-09T09:36:57.632Z,92.20
2017-09-09T09:39:25.091Z,92.10
2017-09-09T09:42:15.862Z,92.40
2017-09-09T09:44:43.316Z,91.60
2017-09-09T09:47:10.791Z,91.90
2017-09-09T09:49:41.169Z,92.30
2017-09-09T09:52:08.636Z,92.10
2017-09-09T09:54:36.096Z,92.10
2017-09-09T09:57:04.335Z,91.90
2017-09-09T09:59:31.795Z,91.90
2017-09-09T10:01:59.275Z,91.70
2017-09-09T10:04:26.725Z,91.40
2017-09-09T10:06:54.198Z,91.60
2017-09-09T10:09:22.438Z,91.00
2017-09-09T10:11:50.602Z,90.60
2017-09-09T10:14:18.059Z,91.00
2017-09-09T10:16:45.535Z,90.70
2017-09-09T10:19:16.027Z,90.90
2017-09-09T10:21:43.500Z,89.70
2017-09-09T10:24:31.836Z,89.40
2017-09-09T10:26:59.308Z,88.40
2017-09-09T10:29:26.763Z,89.10
2017-09-09T10:31:54.240Z,88.00
2017-09-09T10:34:21.707Z,89.30
2017-09-09T10:36:49.172Z,88.70
2017-09-09T10:39:16.639Z,88.60
2017-09-09T10:41:44.151Z,88.40
2017-09-09T10:44:11.611Z,87.50
2017-09-09T10:46:39.077Z,87.80
2017-09-09T10:49:06.544Z,88.90
2017-09-09T10:51:34.003Z,87.80
2017-09-09T10:54:01.489Z,90.20
2017-09-09T10:56:28.955Z,85.50
2017-09-09T10:58:56.419Z,85.80
2017-09-09T11:01:24.647Z,85.90
2017-09-09T11:03:52.120Z,85.90
2017-09-09T11:06:19.578Z,87.50
2017-09-09T11:08:47.060Z,88.40
2017-09-09T11:11:14.519Z,89.40
2017-09-09T11:13:41.988Z,88.50
2017-09-09T11:16:10.219Z,87.90
2017-09-09T11:18:37.695Z,87.10
2017-09-09T11:21:05.151Z,87.80
2017-09-09T11:23:32.636Z,87.30
2017-09-09T11:26:00.098Z,86.80
2017-09-09T11:28:27.548Z,85.60
2017-09-09T11:30:55.016Z,85.70
2017-09-09T11:33:23.240Z,86.70
2017-09-09T11:35:50.708Z,86.70
2017-09-09T11:38:18.174Z,84.80
2017-09-09T11:40:45.653Z,84.80
2017-09-09T11:43:13.143Z,84.70
2017-09-09T11:45:41.367Z,82.10
2017-09-09T11:48:08.830Z,82.00
2017-09-09T11:50:36.300Z,83.90
2017-09-09T11:53:03.763Z,83.10
2017-09-09T11:55:31.237Z,83.80
2017-09-09T11:57:59.482Z,84.30
2017-09-09T12:00:26.947Z,84.20
2017-09-09T12:02:54.410Z,83.50
2017-09-09T12:05:21.899Z,83.00
2017-09-09T12:07:50.128Z,81.10
2017-09-09T12:10:17.875Z,81.10
2017-09-09T12:12:45.331Z,81.80
2017-09-09T12:15:12.807Z,82.60
2017-09-09T12:17:40.272Z,83.10
2017-09-09T12:20:07.736Z,84.10
2017-09-09T12:22:35.198Z,83.60
2017-09-09T12:25:02.673Z,82.20
2017-09-09T12:27:30.903Z,82.40
2017-09-09T12:29:58.577Z,82.00
2017-09-09T12:32:26.079Z,81.80
2017-09-09T12:34:54.311Z,79.90
2017-09-09T12:37:21.896Z,79.90
2017-09-09T12:39:50.233Z,81.80
2017-09-09T12:42:17.959Z,81.50
2017-09-09T12:44:45.447Z,81.30
2017-09-09T12:47:12.924Z,81.60
2017-09-09T12:49:40.389Z,81.60
2017-09-09T12:52:09.961Z,81.80
2017-09-09T12:54:37.427Z,81.10
2017-09-09T12:57:04.900Z,81.20
2017-09-09T12:59:32.358Z,82.10
2017-09-09T13:01:59.993Z,82.00
2017-09-09T13:04:27.459Z,81.50
2017-09-09T13:06:54.937Z,81.50
2017-09-09T13:09:22.400Z,81.70
2017-09-09T13:11:50.552Z,81.60
2017-09-09T13:14:18.005Z,82.20
2017-09-09T13:16:45.469Z,82.50
2017-09-09T13:19:12.939Z,83.00
2017-09-09T13:21:40.403Z,81.40
2017-09-09T13:24:07.873Z,81.60
2017-09-09T13:26:35.331Z,80.50
2017-09-09T13:29:02.807Z,81.90
2017-09-09T13:31:30.273Z,81.40
2017-09-09T13:33:57.965Z,80.80
2017-09-09T13:36:25.449Z,81.70
2017-09-09T13:38:52.921Z,82.60
2017-09-09T13:41:20.374Z,82.30
2017-09-09T13:43:47.852Z,80.10
2017-09-09T13:46:15.319Z,80.90
2017-09-09T13:48:42.792Z,78.70
2017-09-09T13:51:10.256Z,78.40
2017-09-09T13:53:37.730Z,77.70
2017-09-09T13:56:05.959Z,77.60
2017-09-09T13:58:33.429Z,77.50
2017-09-09T14:01:00.897Z,78.10
2017-09-09T14:03:28.350Z,78.00
2017-09-09T14:05:55.819Z,77.10
2017-09-09T14:08:23.273Z,77.00
2017-09-09T14:10:50.745Z,78.30
2017-09-09T14:13:18.223Z,77.90
2017-09-09T14:15:45.692Z,79.70
2017-09-09T14:18:13.153Z,78.70
2017-09-09T14:20:40.622Z,79.70
2017-09-09T14:23:08.086Z,78.50
2017-09-09T14:25:35.556Z,79.40
2017-09-09T14:28:03.015Z,80.90
2017-09-09T14:30:30.482Z,79.10
2017-09-09T14:32:57.943Z,78.80
2017-09-09T14:35:25.412Z,78.40
2017-09-09T14:37:52.869Z,78.80
2017-09-09T14:40:20.330Z,79.30
2017-09-09T14:42:47.791Z,79.00
2017-09-09T14:45:15.276Z,80.40
2017-09-09T14:47:42.736Z,80.80
2017-09-09T14:50:10.967Z,81.20
2017-09-09T14:52:38.427Z,81.10
2017-09-09T14:55:05.905Z,84.80
2017-09-09T14:57:33.372Z,86.20
2017-09-09T15:00:01.595Z,87.80
2017-09-09T15:02:29.063Z,87.50
2017-09-09T15:04:56.539Z,88.30
2017-09-09T15:07:23.994Z,89.70
2017-09-09T15:09:51.451Z,88.60
2017-09-09T15:12:18.924Z,90.70
2017-09-09T15:14:46.382Z,90.70
2017-09-09T15:17:13.860Z,91.70
2017-09-09T15:19:42.088Z,90.70
2017-09-09T15:22:09.554Z,90.60
2017-09-09T15:24:37.006Z,89.00
2017-09-09T15:27:04.474Z,88.80
2017-09-09T15:29:31.931Z,89.20
2017-09-09T15:31:59.403Z,90.90
2017-09-09T15:34:26.867Z,85.80
2017-09-09T15:36:54.341Z,82.30
2017-09-09T15:39:22.567Z,81.00
2017-09-09T15:41:50.186Z,80.90
2017-09-09T15:44:18.411Z,80.10
2017-09-09T15:46:45.895Z,80.00
2017-09-09T15:49:13.362Z,81.50
2017-09-09T15:51:40.824Z,82.20
2017-09-09T15:54:08.295Z,82.80
2017-09-09T15:56:35.747Z,83.40
2017-09-09T15:59:03.974Z,84.00
2017-09-09T16:01:31.436Z,84.00
2017-09-09T16:03:58.904Z,83.80
2017-09-09T16:06:26.376Z,83.90
2017-09-09T16:08:53.843Z,84.30
2017-09-09T16:11:21.303Z,85.60
2017-09-09T16:13:48.804Z,85.40
2017-09-09T16:16:16.259Z,85.60
2017-09-09T16:18:43.748Z,85.80
2017-09-09T16:21:11.966Z,86.30
2017-09-09T16:23:40.211Z,86.00
2017-09-09T16:26:07.671Z,85.90
2017-09-09T16:28:35.139Z,85.90
2017-09-09T16:31:02.600Z,86.20
2017-09-09T16:33:30.071Z,86.60
2017-09-09T16:35:58.294Z,85.70
2017-09-09T16:38:25.780Z,85.70
2017-09-09T16:40:53.236Z,85.80
2017-09-09T16:43:20.704Z,86.10
2017-09-09T16:45:48.178Z,85.80
2017-09-09T16:48:16.411Z,86.30
2017-09-09T16:50:43.890Z,86.30
2017-09-09T16:53:11.352Z,87.00
2017-09-09T16:55:38.824Z,87.10
2017-09-09T16:58:06.275Z,87.40
2017-09-09T17:00:33.750Z,87.80
2017-09-09T17:03:01.983Z,87.80
2017-09-09T17:05:29.451Z,87.70
2017-09-09T17:07:56.911Z,89.90
2017-09-09T17:10:24.403Z,90.00
2017-09-09T17:12:52.634Z,90.60
2017-09-09T17:15:20.108Z,90.70
2017-09-09T17:17:47.574Z,90.40
2017-09-09T17:20:15.050Z,90.80
2017-09-09T17:22:42.512Z,89.70
2017-09-09T17:25:10.742Z,91.00
2017-09-09T17:27:38.201Z,90.70
2017-09-09T17:30:05.681Z,90.30
2017-09-09T17:32:33.139Z,90.70
2017-09-09T17:35:00.601Z,90.50
2017-09-09T17:37:28.062Z,90.50
2017-09-09T17:39:55.524Z,90.50
2017-09-09T17:42:22.987Z,90.60
2017-09-09T17:44:51.227Z,90.90
2017-09-09T17:47:18.707Z,90.50
2017-09-09T17:49:46.166Z,90.40
2017-09-09T17:52:13.634Z,90.30
2017-09-09T17:54:41.872Z,90.30
2017-09-09T17:57:09.334Z,90.50
2017-09-09T17:59:36.812Z,90.50
2017-09-09T18:02:04.312Z,90.50
2017-09-09T18:04:31.743Z,90.60
2017-09-09T18:06:59.216Z,90.60
2017-09-09T18:09:27.441Z,90.50
2017-09-09T18:11:54.914Z,90.50
2017-09-09T18:14:22.391Z,91.00
2017-09-09T18:16:49.903Z,91.00
2017-09-09T18:19:17.344Z,91.20
2017-09-09T18:21:44.824Z,91.30
2017-09-09T18:24:12.299Z,91.60
2017-09-09T18:26:39.755Z,91.60
2017-09-09T18:29:07.242Z,91.50
2017-09-09T18:31:34.697Z,91.80
2017-09-09T18:34:02.166Z,91.80
2017-09-09T18:36:29.628Z,91.60
2017-09-09T18:38:57.867Z,91.40
2017-09-09T18:41:25.324Z,91.40
2017-09-09T18:43:52.795Z,91.20
2017-09-09T18:46:20.251Z,91.30
2017-09-09T18:48:47.728Z,91.50
2017-09-09T18:51:15.183Z,92.00
2017-09-09T18:53:42.650Z,92.10
2017-09-09T18:56:10.877Z,92.20
2017-09-09T18:58:38.351Z,92.20
2017-09-09T19:01:05.813Z,92.40
2017-09-09T19:03:33.283Z,92.50
2017-09-09T19:06:00.744Z,92.70
2017-09-09T19:08:28.207Z,92.80
2017-09-09T19:10:55.672Z,93.00
2017-09-09T19:13:23.139Z,93.20
2017-09-09T19:15:50.595Z,93.30
2017-09-09T19:18:18.331Z,93.40
2017-09-09T19:20:45.795Z,93.40
2017-09-09T19:23:13.254Z,93.40
2017-09-09T19:25:40.719Z,93.50
2017-09-09T19:28:08.179Z,93.90
2017-09-09T19:30:35.651Z,93.60
2017-09-09T19:33:03.905Z,93.50
2017-09-09T19:35:31.371Z,93.40
2017-09-09T19:37:58.831Z,93.40
2017-09-09T19:40:26.312Z,93.10
2017-09-09T19:42:54.535Z,92.90
2017-09-09T19:45:22.003Z,92.90
2017-09-09T19:47:50.228Z,92.80
2017-09-09T19:50:17.700Z,92.80
2017-09-09T19:52:45.527Z,92.60
2017-09-09T19:55:12.987Z,92.50
2017-09-09T19:57:40.469Z,92.30
2017-09-09T20:00:07.938Z,92.20
2017-09-09T20:02:35.401Z,92.30
2017-09-09T20:05:02.867Z,92.20
2017-09-09T20:07:30.327Z,92.20
2017-09-09T20:09:57.808Z,92.10
2017-09-09T20:12:25.283Z,92.20
2017-09-09T20:14:52.745Z,92.30
2017-09-09T20:17:20.216Z,92.30
2017-09-09T20:19:48.447Z,92.60
2017-09-09T20:22:15.920Z,92.50
2017-09-09T20:24:44.155Z,92.50
2017-09-09T20:27:11.630Z,92.80
2017-09-09T20:29:39.087Z,92.20
2017-09-09T20:32:07.255Z,92.00
2017-09-09T20:34:34.724Z,91.70
2017-09-09T20:37:02.183Z,91.60
2017-09-09T20:39:29.643Z,91.50
2017-09-09T20:41:57.117Z,91.40
2017-09-09T20:44:24.575Z,91.40
2017-09-09T20:46:52.053Z,91.50
2017-09-09T20:49:19.511Z,91.40
2017-09-09T20:51:46.992Z,91.20
2017-09-09T20:54:15.231Z,91.70
2017-09-09T20:56:42.707Z,91.70
2017-09-09T20:59:10.172Z,91.70
2017-09-09T21:01:38.418Z,92.20
2017-09-09T21:04:05.890Z,92.10
2017-09-09T21:06:33.362Z,92.20
2017-09-09T21:09:00.831Z,92.40
2017-09-09T21:11:29.055Z,92.90
2017-09-09T21:13:56.528Z,92.90
2017-09-09T21:16:23.985Z,93.10
2017-09-09T21:18:51.462Z,93.20
2017-09-09T21:21:18.958Z,93.20
2017-09-09T21:23:46.452Z,93.20
2017-09-09T21:26:13.959Z,93.40
2017-09-09T21:28:42.216Z,92.90
2017-09-09T21:31:09.683Z,92.90
2017-09-09T21:33:37.159Z,92.80
2017-09-09T21:36:04.611Z,92.90
2017-09-09T21:38:32.843Z,92.90
2017-09-09T21:41:00.303Z,92.90
2017-09-09T21:43:27.775Z,93.00
2017-09-09T21:45:55.244Z,93.20
2017-09-09T21:48:22.716Z,93.20
2017-09-09T21:50:50.958Z,93.10
2017-09-09T21:53:18.428Z,93.10
2017-09-09T21:55:45.887Z,93.00
2017-09-09T21:58:13.352Z,92.80
2017-09-09T22:00:40.818Z,92.90
2017-09-09T22:03:08.287Z,92.80
2017-09-09T22:05:35.776Z,92.70
2017-09-09T22:08:03.236Z,92.90
2017-09-09T22:10:30.706Z,92.80
2017-09-09T22:12:58.167Z,92.70
2017-09-09T22:15:25.642Z,92.60
2017-09-09T22:17:53.863Z,92.60
2017-09-09T22:20:21.335Z,92.60
2017-09-09T22:22:48.794Z,92.60
2017-09-09T22:25:16.267Z,92.70
2017-09-09T22:27:43.731Z,92.70
2017-09-09T22:30:11.202Z,92.90
2017-09-09T22:32:39.476Z,92.90
2017-09-09T22:35:06.942Z,92.90
2017-09-09T22:37:34.411Z,92.80
2017-09-09T22:40:01.875Z,93.20
2017-09-09T22:42:29.355Z,93.50
2017-09-09T22:44:57.993Z,93.40
2017-09-09T22:47:25.532Z,93.40
2017-09-09T22:49:52.995Z,93.40
2017-09-09T22:52:20.466Z,93.30
2017-09-09T22:54:47.923Z,93.20
2017-09-09T22:57:15.394Z,93.30
2017-09-09T22:59:42.850Z,93.40
2017-09-09T23:02:10.315Z,93.50
2017-09-09T23:04:38.543Z,93.50
2017-09-09T23:07:06.016Z,93.50
2017-09-09T23:09:33.486Z,93.50
2017-09-09T23:12:00.955Z,93.50
2017-09-09T23:14:28.418Z,93.60
2017-09-09T23:16:55.892Z,93.50
2017-09-09T23:19:23.342Z,93.50
2017-09-09T23:21:50.808Z,93.60
2017-09-09T23:24:18.272Z,93.70
2017-09-09T23:26:45.747Z,93.60
2017-09-09T23:29:13.968Z,93.80
2017-09-09T23:31:41.517Z,93.80
2017-09-09T23:34:08.981Z,93.90
2017-09-09T23:36:36.440Z,93.90
2017-09-09T23:39:03.907Z,94.00
2017-09-09T23:41:31.371Z,94.10
2017-09-09T23:43:59.635Z,94.00
2017-09-09T23:46:27.073Z,94.00
2017-09-09T23:48:54.540Z,94.00
2017-09-09T23:51:22.008Z,94.00
2017-09-09T23:53:49.476Z,94.00
2017-09-09T23:56:16.930Z,94.10
2017-09-09T23:58:44.403Z,94.10
